Time;durP1;ratioP1;P1;durP2;ratioP2;P2;SDS_P1;SDS_P2;PMS_P1;PMS_P2;Temp;Humidity;BMP_temperature;BMP_pressure;BME280_temperature;BME280_humidity;BME280_pressure;Samples;Min_cycle;Max_cycle;Signal;HPM_P1;HPM_P2
2023/04/22 00:00:29;;;;;;;10.60;9.50;;;10.40;99.90;;;;;;4954307;29;20236;-82
2023/04/22 00:02:56;;;;;;;10.43;9.37;;;10.40;99.90;;;;;;4953466;29;20229;-82
2023/04/22 00:05:23;;;;;;;12.67;10.17;;;10.30;99.90;;;;;;4953874;29;20259;-82
2023/04/22 00:07:50;;;;;;;11.63;10.43;;;10.20;99.90;;;;;;4954304;29;20240;-82
2023/04/22 00:10:18;;;;;;;12.57;11.20;;;10.20;99.90;;;;;;4954288;29;20205;-81
2023/04/22 00:12:45;;;;;;;12.23;10.73;;;10.20;99.90;;;;;;4954469;29;20268;-80
2023/04/22 00:15:12;;;;;;;12.23;11.03;;;10.20;99.90;;;;;;4954743;29;20317;-81
2023/04/22 00:17:41;;;;;;;12.43;11.13;;;10.10;99.90;;;;;;4954438;29;20247;-82
2023/04/22 00:20:10;;;;;;;12.23;10.77;;;10.10;99.90;;;;;;4955199;29;20201;-82
2023/04/22 00:22:37;;;;;;;11.77;10.57;;;10.00;99.90;;;;;;4954454;29;20252;-82
2023/04/22 00:25:05;;;;;;;12.23;10.97;;;10.00;99.90;;;;;;4954781;29;20288;-81
2023/04/22 00:27:33;;;;;;;11.00;9.87;;;9.90;99.90;;;;;;4955081;29;20510;-82
2023/04/22 00:30:00;;;;;;;11.60;10.40;;;9.90;99.90;;;;;;4954965;29;20244;-80
2023/04/22 00:32:29;;;;;;;10.70;9.60;;;9.90;99.90;;;;;;4955063;29;20201;-82
2023/04/22 00:34:56;;;;;;;11.20;9.77;;;9.80;99.90;;;;;;4955567;29;20320;-82
2023/04/22 00:37:23;;;;;;;10.43;9.23;;;9.70;99.90;;;;;;4954371;29;20208;-82
2023/04/22 00:39:50;;;;;;;11.70;10.30;;;9.70;99.90;;;;;;4955266;29;20599;-81
2023/04/22 00:42:17;;;;;;;11.10;10.00;;;9.60;99.90;;;;;;4955088;29;20193;-81
2023/04/22 00:44:47;;;;;;;11.03;9.93;;;9.60;99.90;;;;;;4954857;29;20205;-81
2023/04/22 00:47:14;;;;;;;12.00;10.80;;;9.50;99.90;;;;;;4955007;29;20205;-82
2023/04/22 00:49:41;;;;;;;13.47;12.07;;;9.50;99.90;;;;;;4955108;29;20296;-82
2023/04/22 00:52:08;;;;;;;12.63;11.33;;;9.40;99.90;;;;;;4953595;29;20214;-81
2023/04/22 00:54:36;;;;;;;12.67;11.27;;;9.40;99.90;;;;;;4935559;29;20248;-82
2023/04/22 00:57:05;;;;;;;13.00;11.43;;;9.40;99.90;;;;;;4935632;29;20234;-81
2023/04/22 00:59:32;;;;;;;15.47;13.33;;;9.30;99.90;;;;;;4947911;29;20562;-82
2023/04/22 01:02:01;;;;;;;14.83;12.87;;;9.30;99.90;;;;;;4954489;29;20506;-82
2023/04/22 01:04:28;;;;;;;17.87;14.50;;;9.30;99.90;;;;;;4954789;29;20206;-81
2023/04/22 01:06:55;;;;;;;17.27;15.37;;;9.20;99.90;;;;;;4953905;28;20245;-81
2023/04/22 01:09:21;;;;;;;15.63;14.03;;;9.20;99.90;;;;;;4958544;29;20284;-82
2023/04/22 01:11:48;;;;;;;19.03;16.60;;;9.20;99.90;;;;;;4957864;29;20201;-81
2023/04/22 01:14:16;;;;;;;20.27;18.07;;;9.20;99.90;;;;;;4957819;29;20260;-82
2023/04/22 01:16:45;;;;;;;20.17;17.37;;;9.10;99.90;;;;;;4947703;29;20241;-82
2023/04/22 01:19:13;;;;;;;22.10;18.97;;;9.10;99.90;;;;;;4938796;29;20202;-82
2023/04/22 01:21:42;;;;;;;19.97;17.63;;;9.10;99.90;;;;;;4938965;29;20284;-81
2023/04/22 01:24:10;;;;;;;22.23;18.60;;;9.10;99.90;;;;;;4938661;29;20202;-81
2023/04/22 01:26:37;;;;;;;23.43;19.93;;;9.00;99.90;;;;;;4938269;29;20280;-81
2023/04/22 01:29:06;;;;;;;24.67;20.33;;;9.00;99.90;;;;;;4938486;29;20216;-81
2023/04/22 01:31:33;;;;;;;22.43;19.10;;;9.00;99.90;;;;;;4949585;29;20212;-83
2023/04/22 01:34:01;;;;;;;18.83;16.83;;;8.90;99.90;;;;;;4957346;29;20225;-81
2023/04/22 01:36:28;;;;;;;22.00;19.37;;;8.90;99.90;;;;;;4957652;29;20232;-82
2023/04/22 01:38:56;;;;;;;21.40;18.43;;;8.90;99.90;;;;;;4957041;29;20209;-81
2023/04/22 01:41:24;;;;;;;23.53;20.23;;;8.80;99.90;;;;;;4957089;29;20371;-80
2023/04/22 01:43:53;;;;;;;23.33;20.77;;;8.90;99.90;;;;;;4957889;29;20240;-82
2023/04/22 01:46:20;;;;;;;26.67;22.13;;;8.80;99.90;;;;;;4956559;29;20673;-82
2023/04/22 01:48:50;;;;;;;26.33;21.63;;;8.80;99.90;;;;;;4952850;29;20208;-82
2023/04/22 01:51:19;;;;;;;24.90;20.73;;;8.80;99.90;;;;;;4938789;29;20198;-82
2023/04/22 01:53:46;;;;;;;25.57;20.87;;;8.70;99.90;;;;;;4938416;29;20444;-82
2023/04/22 01:56:13;;;;;;;25.07;20.60;;;8.70;99.90;;;;;;4938440;29;20631;-80
2023/04/22 01:58:41;;;;;;;23.57;20.53;;;8.70;99.90;;;;;;4942066;29;20292;-82
2023/04/22 02:01:10;;;;;;;23.17;20.43;;;8.60;99.90;;;;;;4957450;29;20209;-83
2023/04/22 02:03:37;;;;;;;23.47;20.00;;;8.60;99.90;;;;;;4956636;29;20275;-82
2023/04/22 02:06:04;;;;;;;27.23;23.43;;;8.60;99.90;;;;;;4956850;29;20205;-82
2023/04/22 02:08:31;;;;;;;32.23;26.13;;;8.50;99.90;;;;;;4954652;29;20315;-83
2023/04/22 02:10:59;;;;;;;32.23;26.30;;;8.50;99.90;;;;;;4957000;29;20244;-84
2023/04/22 02:13:26;;;;;;;29.40;24.27;;;8.50;99.90;;;;;;4957166;29;20208;-82
2023/04/22 02:15:54;;;;;;;30.17;24.97;;;8.50;99.90;;;;;;4956712;29;20578;-84
2023/04/22 02:18:21;;;;;;;32.43;26.17;;;8.50;99.90;;;;;;4955528;28;20523;-81
2023/04/22 02:20:49;;;;;;;33.27;26.60;;;8.50;99.90;;;;;;4956169;29;20201;-84
2023/04/22 02:23:16;;;;;;;34.27;28.57;;;8.40;99.90;;;;;;4956311;29;20202;-82
2023/04/22 02:25:49;;;;;;;36.83;28.37;;;8.40;99.90;;;;;;4956806;29;20205;-82
2023/04/22 02:28:16;;;;;;;39.93;30.27;;;8.40;99.90;;;;;;4956947;29;20213;-82
2023/04/22 02:30:43;;;;;;;37.00;29.30;;;8.40;99.90;;;;;;4954718;29;20257;-80
2023/04/22 02:33:11;;;;;;;35.57;27.67;;;8.40;99.90;;;;;;4956439;29;20312;-81
2023/04/22 02:35:38;;;;;;;37.27;28.33;;;8.40;99.90;;;;;;4956213;29;20254;-81
2023/04/22 02:38:05;;;;;;;36.17;28.70;;;8.30;99.90;;;;;;4955157;29;20223;-81
2023/04/22 02:40:32;;;;;;;37.30;28.77;;;8.30;99.90;;;;;;4956288;29;20229;-82
2023/04/22 02:42:59;;;;;;;33.10;26.33;;;8.20;99.90;;;;;;4956600;29;20289;-81
2023/04/22 02:45:26;;;;;;;37.17;30.07;;;8.20;99.90;;;;;;4939043;29;20293;-81
2023/04/22 02:47:53;;;;;;;39.23;30.00;;;8.20;99.90;;;;;;4936999;29;20288;-82
2023/04/22 02:50:21;;;;;;;38.20;30.40;;;8.20;99.90;;;;;;4936925;29;20198;-80
2023/04/22 02:52:48;;;;;;;39.03;31.73;;;8.20;99.90;;;;;;4936381;29;20285;-81
2023/04/22 02:55:15;;;;;;;39.43;29.77;;;8.10;99.90;;;;;;4955528;29;20325;-81
2023/04/22 02:57:42;;;;;;;39.57;29.63;;;8.10;99.90;;;;;;4955657;29;20205;-83
2023/04/22 03:00:10;;;;;;;42.63;33.33;;;8.10;99.90;;;;;;4955788;29;20303;-81
2023/04/22 03:02:37;;;;;;;44.83;32.90;;;8.10;99.90;;;;;;4955280;29;20201;-80
2023/04/22 03:05:04;;;;;;;45.30;32.63;;;8.10;99.90;;;;;;4944090;29;20224;-80
2023/04/22 03:07:33;;;;;;;46.50;33.00;;;8.10;99.90;;;;;;4937760;29;20198;-83
2023/04/22 03:10:00;;;;;;;41.87;32.30;;;8.10;99.90;;;;;;4937679;29;20245;-82
2023/04/22 03:12:27;;;;;;;43.40;32.63;;;8.00;99.90;;;;;;4952508;29;20219;-82
2023/04/22 03:14:54;;;;;;;38.70;30.30;;;8.00;99.90;;;;;;4956725;29;20293;-81
2023/04/22 03:17:21;;;;;;;41.07;31.33;;;8.00;99.90;;;;;;4956541;28;20240;-81
2023/04/22 03:19:47;;;;;;;41.20;31.00;;;7.90;99.90;;;;;;4956952;29;20259;-82
2023/04/22 03:22:14;;;;;;;39.60;29.40;;;7.90;99.90;;;;;;4957282;29;20303;-82
2023/04/22 03:24:43;;;;;;;42.50;30.63;;;7.90;99.90;;;;;;4957399;29;20287;-83
2023/04/22 03:27:10;;;;;;;39.10;30.87;;;7.90;99.90;;;;;;4937457;29;20225;-82
2023/04/22 03:29:38;;;;;;;40.20;30.37;;;7.90;99.90;;;;;;4937513;29;20301;-82
2023/04/22 03:32:05;;;;;;;47.93;35.00;;;7.80;99.90;;;;;;4937229;29;20233;-82
2023/04/22 03:34:31;;;;;;;48.73;35.27;;;7.90;99.90;;;;;;4936822;29;20222;-82
2023/04/22 03:36:58;;;;;;;46.13;34.57;;;7.80;99.90;;;;;;4937919;29;20210;-82
2023/04/22 03:39:25;;;;;;;47.33;34.27;;;7.80;99.90;;;;;;4937014;29;20209;-82
2023/04/22 03:41:53;;;;;;;46.80;35.77;;;7.80;99.90;;;;;;4936669;29;20202;-80
2023/04/22 03:44:20;;;;;;;47.50;34.20;;;7.70;99.90;;;;;;4946974;29;20209;-81
2023/04/22 03:46:47;;;;;;;48.17;35.17;;;7.70;99.90;;;;;;4955702;29;20592;-82
2023/04/22 03:49:14;;;;;;;48.87;36.87;;;7.70;99.90;;;;;;4951024;29;20209;-81
2023/04/22 03:51:41;;;;;;;52.50;38.00;;;7.70;99.90;;;;;;4936527;29;20616;-82
2023/04/22 03:54:08;;;;;;;44.97;34.33;;;7.70;99.90;;;;;;4936205;29;20550;-82
2023/04/22 03:56:35;;;;;;;48.37;35.07;;;7.70;99.90;;;;;;4951433;29;20209;-82
2023/04/22 03:59:03;;;;;;;50.93;36.57;;;7.70;99.90;;;;;;4955600;29;20229;-82
2023/04/22 04:01:30;;;;;;;47.67;35.47;;;7.60;99.90;;;;;;4953768;29;20217;-84
2023/04/22 04:03:57;;;;;;;49.03;35.90;;;7.60;99.90;;;;;;4955292;29;20296;-83
2023/04/22 04:06:25;;;;;;;44.60;33.30;;;7.60;99.90;;;;;;4955383;29;20296;-80
2023/04/22 04:08:52;;;;;;;44.23;31.17;;;7.60;99.90;;;;;;4953811;29;20202;-81
2023/04/22 04:11:19;;;;;;;41.60;30.40;;;7.60;99.90;;;;;;4954982;29;20669;-80
2023/04/22 04:13:46;;;;;;;44.17;32.77;;;7.60;99.90;;;;;;4954906;29;20248;-80
2023/04/22 04:16:15;;;;;;;40.70;31.53;;;7.50;99.90;;;;;;4954619;28;20315;-81
2023/04/22 04:18:42;;;;;;;42.17;32.17;;;7.50;99.90;;;;;;4955129;29;20239;-80
2023/04/22 04:21:08;;;;;;;42.90;32.30;;;7.50;99.90;;;;;;4955235;29;20220;-79
2023/04/22 04:23:36;;;;;;;38.90;28.90;;;7.50;99.90;;;;;;4953951;29;20205;-81
2023/04/22 04:26:04;;;;;;;44.73;31.93;;;7.40;99.90;;;;;;4944257;29;20202;-81
2023/04/22 04:28:33;;;;;;;43.23;31.73;;;7.40;99.90;;;;;;4936272;29;20206;-80
2023/04/22 04:31:01;;;;;;;44.40;33.07;;;7.40;99.90;;;;;;4935053;29;20209;-81
2023/04/22 04:33:30;;;;;;;41.87;31.07;;;7.40;99.90;;;;;;4943560;29;20304;-81
2023/04/22 04:35:58;;;;;;;41.47;30.23;;;7.40;99.90;;;;;;4955110;29;20233;-82
2023/04/22 04:38:25;;;;;;;44.23;33.40;;;7.40;99.90;;;;;;4955628;29;20205;-82
2023/04/22 04:40:52;;;;;;;43.00;32.30;;;7.40;99.90;;;;;;4947946;29;20205;-82
2023/04/22 04:43:20;;;;;;;42.50;31.50;;;7.40;99.90;;;;;;4957800;28;20579;-82
2023/04/22 04:45:47;;;;;;;47.77;33.57;;;7.40;99.90;;;;;;4959318;29;20590;-82
2023/04/22 04:48:14;;;;;;;49.13;34.57;;;7.40;99.90;;;;;;4952512;29;20527;-83
2023/04/22 04:50:43;;;;;;;43.20;33.13;;;7.40;99.90;;;;;;4940023;29;20237;-82
2023/04/22 04:53:10;;;;;;;43.53;31.80;;;7.40;99.90;;;;;;4940093;29;20245;-83
2023/04/22 04:55:37;;;;;;;44.87;32.43;;;7.50;99.90;;;;;;4940249;29;20707;-82
2023/04/22 04:58:04;;;;;;;48.07;34.43;;;7.50;99.90;;;;;;4939750;29;20655;-80
2023/04/22 05:00:31;;;;;;;49.77;34.93;;;7.50;99.90;;;;;;4940153;29;20210;-80
2023/04/22 05:02:58;;;;;;;43.17;31.07;;;7.60;99.90;;;;;;4957888;29;20209;-82
2023/04/22 05:05:25;;;;;;;46.37;32.77;;;7.60;99.90;;;;;;4958871;29;20280;-83
2023/04/22 05:07:53;;;;;;;48.87;35.13;;;7.70;99.90;;;;;;4959106;29;20252;-81
2023/04/22 05:10:20;;;;;;;46.63;32.83;;;7.70;99.90;;;;;;4954897;29;20210;-82
2023/04/22 05:12:47;;;;;;;47.63;34.27;;;7.70;99.90;;;;;;4939582;29;20202;-83
2023/04/22 05:15:14;;;;;;;44.60;31.83;;;7.80;99.90;;;;;;4939700;29;20301;-83
2023/04/22 05:17:42;;;;;;;44.90;31.60;;;7.80;99.90;;;;;;4939414;29;20234;-83
2023/04/22 05:20:09;;;;;;;44.93;32.70;;;7.80;99.90;;;;;;4942673;29;20279;-82
2023/04/22 05:22:36;;;;;;;44.27;32.27;;;7.80;99.90;;;;;;4958443;29;20219;-81
2023/04/22 05:25:05;;;;;;;39.30;29.83;;;7.80;99.90;;;;;;4958263;29;20232;-83
2023/04/22 05:27:32;;;;;;;44.30;32.23;;;7.90;99.90;;;;;;4957195;29;20198;-82
2023/04/22 05:29:59;;;;;;;45.00;32.17;;;7.90;99.90;;;;;;4956323;29;20288;-82
2023/04/22 05:32:26;;;;;;;48.40;33.83;;;8.00;99.90;;;;;;4958072;29;20657;-82
2023/04/22 05:34:53;;;;;;;45.83;33.93;;;8.00;99.90;;;;;;4959078;29;20288;-82
2023/04/22 05:37:20;;;;;;;46.93;33.03;;;8.10;99.90;;;;;;4960111;29;20226;-82
2023/04/22 05:39:46;;;;;;;46.57;33.30;;;8.20;99.90;;;;;;4959544;29;20255;-82
2023/04/22 05:42:15;;;;;;;47.10;31.33;;;8.20;99.90;;;;;;4941260;29;20213;-81
2023/04/22 05:44:42;;;;;;;43.33;31.40;;;8.30;99.90;;;;;;4939867;29;20202;-82
2023/04/22 05:47:08;;;;;;;48.97;34.73;;;8.40;99.90;;;;;;4939411;29;20198;-84
2023/04/22 05:49:36;;;;;;;45.43;33.30;;;8.40;99.90;;;;;;4957746;29;20215;-82
2023/04/22 05:52:03;;;;;;;48.97;35.10;;;8.50;99.90;;;;;;4954161;29;20276;-83
2023/04/22 05:54:30;;;;;;;42.90;32.13;;;8.50;99.90;;;;;;4938862;29;20293;-82
2023/04/22 05:56:57;;;;;;;43.90;33.33;;;8.60;99.90;;;;;;4938581;29;20232;-82
2023/04/22 05:59:25;;;;;;;45.23;32.67;;;8.70;99.90;;;;;;4953569;29;20213;-82
2023/04/22 06:01:52;;;;;;;40.27;30.43;;;8.70;99.90;;;;;;4957286;29;20225;-82
2023/04/22 06:04:19;;;;;;;42.63;32.27;;;8.70;99.90;;;;;;4957458;29;20215;-82
2023/04/22 06:06:46;;;;;;;46.77;33.93;;;8.80;99.90;;;;;;4957907;29;20248;-82
2023/04/22 06:09:13;;;;;;;42.00;32.23;;;8.80;99.90;;;;;;4957164;29;20221;-83
2023/04/22 06:11:40;;;;;;;47.80;34.47;;;8.90;99.90;;;;;;4957474;29;20636;-83
2023/04/22 06:14:07;;;;;;;43.27;33.37;;;8.90;99.90;;;;;;4957528;29;20237;-80
2023/04/22 06:16:35;;;;;;;43.20;33.83;;;8.90;99.90;;;;;;4957194;29;20241;-84
2023/04/22 06:19:02;;;;;;;40.93;32.03;;;8.90;99.90;;;;;;4957239;29;20595;-84
2023/04/22 06:21:31;;;;;;;42.37;31.77;;;9.00;99.90;;;;;;4939792;29;20210;-81
2023/04/22 06:23:58;;;;;;;44.83;34.07;;;9.00;99.90;;;;;;4939173;29;20301;-83
2023/04/22 06:26:25;;;;;;;45.07;33.87;;;9.10;99.90;;;;;;4956994;29;20202;-81
2023/04/22 06:28:52;;;;;;;42.77;32.57;;;9.10;99.90;;;;;;4956491;29;20204;-82
2023/04/22 06:31:19;;;;;;;50.37;36.40;;;9.20;99.90;;;;;;4956999;29;20284;-82
2023/04/22 06:33:48;;;;;;;50.10;36.90;;;9.20;99.90;;;;;;4956372;29;20233;-83
2023/04/22 06:36:14;;;;;;;46.87;36.23;;;9.30;99.90;;;;;;4956696;29;20233;-82
2023/04/22 06:38:41;;;;;;;52.13;38.67;;;9.40;99.90;;;;;;4956606;29;20205;-82
2023/04/22 06:41:08;;;;;;;47.13;35.47;;;9.30;99.90;;;;;;4956502;29;20209;-82
2023/04/22 06:43:35;;;;;;;44.40;33.53;;;9.40;99.90;;;;;;4956595;28;20253;-82
2023/04/22 06:46:05;;;;;;;48.17;37.10;;;9.50;99.90;;;;;;4955967;28;20598;-82
2023/04/22 06:48:32;;;;;;;43.80;34.33;;;9.50;99.90;;;;;;4956831;29;20563;-82
2023/04/22 06:51:01;;;;;;;46.40;35.77;;;9.50;99.90;;;;;;4940785;29;20293;-81
2023/04/22 06:56:51;;;;;;;41.47;32.20;;;9.70;99.90;;;;;;4886187;29;20381;-82
2023/04/22 06:59:18;;;;;;;44.33;35.13;;;9.80;99.90;;;;;;4956351;29;20205;-82
2023/04/22 07:01:45;;;;;;;42.90;34.73;;;9.90;99.90;;;;;;4956459;29;20277;-83
2023/04/22 07:04:12;;;;;;;38.93;31.40;;;9.90;99.90;;;;;;4955872;28;20208;-83
2023/04/22 07:06:40;;;;;;;42.10;34.00;;;10.00;99.90;;;;;;4955256;29;20213;-82
2023/04/22 07:09:07;;;;;;;42.07;33.47;;;10.10;99.90;;;;;;4955657;29;20590;-80
2023/04/22 07:11:34;;;;;;;35.30;29.40;;;10.20;99.90;;;;;;4954148;29;20209;-81
2023/04/22 07:14:01;;;;;;;41.63;33.53;;;10.30;99.90;;;;;;4954666;29;20197;-82
2023/04/22 07:16:28;;;;;;;38.17;31.33;;;10.30;99.90;;;;;;4955319;29;20350;-82
2023/04/22 07:18:56;;;;;;;40.00;32.03;;;10.40;99.90;;;;;;4952820;29;20189;-79
2023/04/22 07:21:23;;;;;;;36.87;30.37;;;10.50;99.90;;;;;;4955491;29;20228;-81
2023/04/22 07:23:51;;;;;;;36.70;30.97;;;10.60;99.90;;;;;;4955104;29;20205;-81
2023/04/22 07:26:18;;;;;;;32.97;28.90;;;10.70;99.90;;;;;;4954972;29;20208;-81
2023/04/22 07:28:45;;;;;;;33.57;28.40;;;10.70;99.90;;;;;;4955167;29;20693;-79
2023/04/22 07:31:12;;;;;;;35.83;29.77;;;10.80;99.90;;;;;;4955129;29;20201;-80
2023/04/22 07:33:39;;;;;;;34.20;27.47;;;10.90;99.90;;;;;;4953681;29;20954;-82
2023/04/22 07:36:06;;;;;;;34.97;29.93;;;11.10;99.90;;;;;;4955197;29;20665;-83
2023/04/22 07:38:33;;;;;;;31.13;27.73;;;11.20;99.90;;;;;;4954865;29;20197;-80
2023/04/22 07:41:02;;;;;;;32.10;28.53;;;11.40;99.90;;;;;;4947875;29;20261;-80
2023/04/22 07:43:29;;;;;;;31.20;26.97;;;11.50;99.90;;;;;;4935214;29;20310;-82
2023/04/22 07:45:56;;;;;;;30.87;26.90;;;11.70;99.90;;;;;;4934916;29;20324;-79
2023/04/22 07:48:23;;;;;;;28.60;25.43;;;11.80;99.90;;;;;;4943468;29;20228;-80
2023/04/22 07:50:50;;;;;;;26.83;23.87;;;11.90;99.90;;;;;;4954858;29;20205;-79
2023/04/22 07:53:17;;;;;;;26.43;23.43;;;12.10;99.90;;;;;;4953857;29;20272;-82
2023/04/22 07:55:44;;;;;;;26.80;23.90;;;12.20;99.90;;;;;;4955090;29;20225;-79
2023/04/22 07:58:12;;;;;;;24.77;22.07;;;12.40;99.90;;;;;;4954624;29;20200;-80
2023/04/22 08:00:39;;;;;;;25.67;22.97;;;12.50;99.90;;;;;;4953869;29;20213;-82
2023/04/22 08:03:06;;;;;;;24.87;22.13;;;12.70;99.90;;;;;;4948495;29;20229;-82
2023/04/22 08:05:33;;;;;;;26.50;22.27;;;12.90;99.90;;;;;;4936581;29;20205;-83
2023/04/22 08:08:00;;;;;;;22.50;20.23;;;13.10;99.90;;;;;;4939452;29;20205;-82
2023/04/22 08:10:27;;;;;;;20.90;18.67;;;13.20;99.90;;;;;;4955844;29;20292;-83
2023/04/22 08:12:54;;;;;;;23.47;19.63;;;13.40;99.90;;;;;;4954998;29;20233;-81
2023/04/22 08:15:22;;;;;;;17.93;16.13;;;13.60;99.90;;;;;;4955316;29;20292;-82
2023/04/22 08:17:49;;;;;;;17.73;15.93;;;13.60;99.90;;;;;;4957338;28;20714;-82
2023/04/22 08:20:16;;;;;;;16.53;15.00;;;13.60;99.90;;;;;;4960007;29;20287;-82
2023/04/22 08:22:44;;;;;;;15.77;14.17;;;13.80;99.90;;;;;;4958414;29;20265;-82
2023/04/22 08:25:11;;;;;;;17.53;15.70;;;14.00;99.90;;;;;;4959152;29;20205;-81
2023/04/22 08:27:38;;;;;;;18.37;16.47;;;14.30;99.90;;;;;;4959593;29;20201;-82
2023/04/22 08:30:06;;;;;;;17.47;15.77;;;14.80;99.90;;;;;;4958991;29;20233;-81
2023/04/22 08:32:35;;;;;;;13.70;12.40;;;15.30;99.90;;;;;;4958377;29;20598;-82
2023/04/22 08:35:02;;;;;;;12.85;11.55;;;15.60;99.90;;;;;;4959116;29;20205;-83
2023/04/22 08:37:30;;;;;;;13.23;11.93;;;15.90;99.90;;;;;;4959419;29;20221;-84
2023/04/22 08:39:57;;;;;;;11.57;10.38;;;16.20;99.90;;;;;;4959054;29;20625;-81
2023/04/22 08:42:24;;;;;;;9.60;8.70;;;16.40;99.90;;;;;;4940663;29;20263;-79
2023/04/22 08:44:52;;;;;;;12.63;9.60;;;16.60;99.90;;;;;;4955495;29;20657;-79
2023/04/22 08:47:21;;;;;;;9.23;8.20;;;16.70;99.90;;;;;;4945810;29;20211;-82
2023/04/22 08:49:50;;;;;;;9.85;7.85;;;16.90;99.90;;;;;;4957020;29;20200;-80
2023/04/22 08:52:18;;;;;;;6.22;5.63;;;16.90;99.90;;;;;;4957638;29;20201;-79
2023/04/22 08:54:44;;;;;;;6.55;5.95;;;17.00;99.90;;;;;;4956494;29;20248;-81
2023/04/22 08:57:15;;;;;;;8.02;7.10;;;17.10;99.90;;;;;;4957415;29;20223;-81
2023/04/22 08:59:42;;;;;;;8.10;7.40;;;17.30;99.90;;;;;;4958310;29;20248;-82
2023/04/22 09:02:16;;;;;;;7.75;6.97;;;17.50;99.90;;;;;;4958506;29;20201;-82
2023/04/22 09:04:44;;;;;;;7.15;6.45;;;17.60;99.90;;;;;;4957248;29;20221;-83
2023/04/22 09:07:16;;;;;;;8.75;7.95;;;17.60;99.90;;;;;;4957841;29;20207;-79
2023/04/22 09:09:44;;;;;;;25.95;15.13;;;17.50;99.90;;;;;;4956334;29;20213;-78
2023/04/22 09:12:11;;;;;;;15.50;9.90;;;17.00;99.90;;;;;;4957329;29;20196;-80
2023/04/22 09:14:39;;;;;;;8.90;7.78;;;17.10;99.90;;;;;;4957623;29;20209;-75
2023/04/22 09:17:06;;;;;;;7.18;6.47;;;17.00;99.90;;;;;;4955931;28;20237;-74
2023/04/22 09:19:33;;;;;;;10.50;9.45;;;17.30;99.90;;;;;;4954955;29;20212;-77
2023/04/22 09:22:00;;;;;;;9.88;8.93;;;17.50;99.90;;;;;;4956361;29;20288;-82
2023/04/22 09:24:29;;;;;;;9.15;8.35;;;17.30;99.90;;;;;;4957469;29;20841;-83
2023/04/22 09:26:58;;;;;;;9.02;8.13;;;17.60;99.90;;;;;;4956417;29;20217;-78
2023/04/22 09:29:30;;;;;;;8.63;7.82;;;17.50;99.90;;;;;;4956961;28;20225;-77
2023/04/22 09:31:57;;;;;;;8.05;7.35;;;17.60;99.90;;;;;;4957119;29;20196;-81
2023/04/22 09:34:24;;;;;;;8.18;7.38;;;17.80;99.90;;;;;;4956591;29;20867;-77
2023/04/22 09:36:51;;;;;;;9.10;8.20;;;18.00;99.90;;;;;;4956946;29;20233;-79
2023/04/22 09:39:18;;;;;;;8.55;7.75;;;18.10;99.90;;;;;;4957325;29;20621;-80
2023/04/22 09:41:55;;;;;;;8.52;7.72;;;18.10;99.90;;;;;;4957333;29;20205;-80
2023/04/22 09:44:22;;;;;;;8.50;7.70;;;18.10;99.90;;;;;;4957424;29;20291;-83
2023/04/22 09:46:50;;;;;;;9.23;8.38;;;17.90;99.90;;;;;;4957342;29;20308;-79
2023/04/22 09:49:17;;;;;;;7.82;7.13;;;17.90;99.90;;;;;;4956864;29;20209;-80
2023/04/22 09:51:44;;;;;;;8.77;7.95;;;17.80;99.90;;;;;;4956073;29;20208;-77
2023/04/22 09:54:11;;;;;;;9.13;8.32;;;17.70;99.90;;;;;;4956120;29;20197;-80
2023/04/22 09:56:48;;;;;;;10.05;9.02;;;17.60;99.90;;;;;;4956271;29;20578;-79
2023/04/22 09:59:20;;;;;;;8.18;6.65;;;17.50;99.90;;;;;;4956136;29;20197;-78
2023/04/22 10:01:47;;;;;;;6.55;5.95;;;17.30;99.90;;;;;;4954871;29;20197;-78
2023/04/22 10:04:15;;;;;;;14.35;12.05;;;17.30;99.90;;;;;;4956309;29;20284;-79
2023/04/22 10:06:43;;;;;;;12.40;11.20;;;17.30;99.90;;;;;;4955449;29;20205;-78
2023/04/22 10:09:11;;;;;;;13.15;11.68;;;17.10;99.90;;;;;;4957298;29;20330;-85
2023/04/22 10:11:39;;;;;;;12.45;11.15;;;17.00;99.90;;;;;;4958227;29;20838;-80
2023/04/22 10:14:09;;;;;;;11.90;10.48;;;16.90;99.90;;;;;;4957125;29;20662;-83
2023/04/22 10:16:38;;;;;;;11.80;10.70;;;16.90;99.90;;;;;;4955635;29;20283;-80
2023/04/22 10:19:07;;;;;;;12.90;11.60;;;16.70;99.90;;;;;;4956649;29;20282;-81
2023/04/22 10:21:35;;;;;;;11.15;10.05;;;16.60;99.90;;;;;;4955384;29;20205;-81
2023/04/22 10:24:03;;;;;;;11.95;10.75;;;16.40;99.90;;;;;;4956859;29;20204;-80
2023/04/22 10:26:40;;;;;;;13.48;12.10;;;16.30;99.90;;;;;;4956155;29;20201;-78
2023/04/22 10:29:15;;;;;;;12.45;11.23;;;16.20;99.90;;;;;;4954645;29;20316;-78
2023/04/22 10:31:43;;;;;;;11.60;10.25;;;16.10;99.90;;;;;;4956379;29;20201;-81
2023/04/22 10:34:13;;;;;;;11.57;10.43;;;15.80;99.90;;;;;;4955547;29;20233;-83
2023/04/22 10:37:00;;;;;;;12.40;10.85;;;15.50;99.90;;;;;;4936405;29;20242;-80
2023/04/22 10:39:28;;;;;;;12.48;11.27;;;15.40;99.90;;;;;;4936591;29;20227;-81
2023/04/22 10:42:04;;;;;;;12.18;10.85;;;15.50;99.90;;;;;;4936630;29;20205;-80
2023/04/22 10:44:47;;;;;;;12.77;11.52;;;15.70;99.90;;;;;;4937034;29;20209;-81
2023/04/22 10:47:25;;;;;;;12.48;10.55;;;15.90;99.90;;;;;;4952489;29;20208;-80
2023/04/22 10:50:08;;;;;;;12.27;10.57;;;16.00;99.90;;;;;;4955626;29;20748;-81
2023/04/22 10:52:35;;;;;;;14.45;13.05;;;16.00;99.90;;;;;;4956239;29;20219;-81
2023/04/22 10:55:02;;;;;;;14.10;12.70;;;16.00;99.90;;;;;;4955109;29;20215;-79
2023/04/22 10:57:41;;;;;;;15.13;13.52;;;16.10;99.90;;;;;;4955667;29;20221;-81
2023/04/22 11:00:35;;;;;;;13.77;12.32;;;16.20;99.90;;;;;;4955879;29;20248;-80
2023/04/22 11:03:26;;;;;;;16.20;14.55;;;16.20;99.90;;;;;;4954492;29;20209;-81
2023/04/22 11:06:15;;;;;;;15.80;14.10;;;16.10;99.90;;;;;;4928991;29;20865;-81
2023/04/22 11:08:45;;;;;;;18.27;15.30;;;16.00;99.90;;;;;;4937008;29;20213;-80
2023/04/22 11:11:13;;;;;;;20.75;16.80;;;15.80;99.90;;;;;;4941030;29;20676;-79
2023/04/22 11:13:42;;;;;;;17.85;15.93;;;15.60;99.90;;;;;;4955524;29;20272;-80
2023/04/22 11:16:10;;;;;;;17.80;15.73;;;15.40;99.90;;;;;;4954352;28;20228;-79
2023/04/22 11:18:38;;;;;;;18.88;16.33;;;15.10;99.90;;;;;;4955136;29;20688;-81
2023/04/22 11:21:07;;;;;;;17.92;16.10;;;14.90;99.90;;;;;;4955449;29;20517;-80
2023/04/22 11:23:35;;;;;;;18.25;16.35;;;14.70;99.90;;;;;;4955370;29;20602;-80
2023/04/22 11:26:04;;;;;;;19.25;16.67;;;14.50;99.90;;;;;;4955058;29;20205;-80
2023/04/22 11:28:32;;;;;;;17.85;16.02;;;14.40;99.90;;;;;;4954574;29;20616;-80
2023/04/22 11:31:03;;;;;;;22.03;17.80;;;14.20;99.90;;;;;;4954001;29;20281;-81
2023/04/22 11:33:32;;;;;;;18.70;16.63;;;14.10;99.90;;;;;;4954952;28;20243;-79
2023/04/22 11:35:59;;;;;;;18.95;16.95;;;13.90;99.90;;;;;;4955320;29;20194;-80
2023/04/22 11:38:26;;;;;;;21.75;17.92;;;13.80;99.90;;;;;;4954358;29;20229;-79
2023/04/22 11:40:57;;;;;;;20.73;18.33;;;13.80;99.90;;;;;;4954817;29;20296;-80
2023/04/22 11:43:24;;;;;;;24.87;20.63;;;13.70;99.90;;;;;;4954675;29;20256;-82
2023/04/22 11:45:51;;;;;;;23.17;19.48;;;13.70;99.90;;;;;;4953934;29;20215;-80
2023/04/22 11:48:18;;;;;;;22.33;19.77;;;13.70;99.90;;;;;;4955586;29;20208;-79
2023/04/22 11:50:47;;;;;;;22.30;19.53;;;13.60;99.90;;;;;;4954811;28;20265;-80
2023/04/22 11:53:16;;;;;;;24.00;20.57;;;13.50;99.90;;;;;;4954413;29;20209;-80
2023/04/22 11:55:45;;;;;;;22.57;20.13;;;13.40;99.90;;;;;;4954410;29;20567;-79
2023/04/22 11:58:14;;;;;;;23.67;21.13;;;13.30;99.90;;;;;;4954174;29;20256;-81
2023/04/22 12:00:43;;;;;;;21.20;18.93;;;13.30;99.90;;;;;;4953288;29;20206;-79
2023/04/22 12:03:14;;;;;;;24.37;21.43;;;13.20;99.90;;;;;;4954613;29;20268;-79
2023/04/22 12:05:42;;;;;;;28.10;21.30;;;13.10;99.90;;;;;;4953776;29;20779;-78
2023/04/22 12:08:13;;;;;;;26.20;21.77;;;13.10;99.90;;;;;;4934444;29;20665;-81
2023/04/22 12:10:41;;;;;;;29.13;23.43;;;13.00;99.90;;;;;;4935008;29;20690;-80
2023/04/22 12:13:09;;;;;;;28.73;22.43;;;12.90;99.90;;;;;;4954422;29;20201;-80
2023/04/22 12:15:41;;;;;;;27.57;22.47;;;12.80;99.90;;;;;;4954203;29;20618;-80
2023/04/22 12:18:09;;;;;;;25.60;21.23;;;12.80;99.90;;;;;;4954478;29;20237;-81
2023/04/22 12:20:36;;;;;;;28.57;24.07;;;12.80;99.90;;;;;;4954597;29;20482;-81
2023/04/22 12:23:04;;;;;;;28.40;22.80;;;12.70;99.90;;;;;;4954070;29;20244;-82
2023/04/22 12:25:33;;;;;;;30.90;24.73;;;12.70;99.90;;;;;;4955288;29;20280;-81
2023/04/22 12:28:00;;;;;;;32.10;24.83;;;12.60;99.90;;;;;;4955538;29;20197;-82
2023/04/22 12:30:27;;;;;;;29.63;24.00;;;12.60;99.90;;;;;;4954998;29;20205;-80
2023/04/22 12:32:54;;;;;;;31.90;24.17;;;12.60;99.90;;;;;;4953691;29;20249;-80
2023/04/22 12:35:21;;;;;;;29.20;23.43;;;12.50;99.90;;;;;;4954284;29;20237;-78
2023/04/22 12:37:48;;;;;;;30.30;24.00;;;12.40;99.90;;;;;;4954311;29;20221;-79
2023/04/22 12:40:15;;;;;;;32.03;25.63;;;12.40;99.90;;;;;;4953677;29;20209;-80